sensor_id;sensor_type;location;lat;lon;timestamp;P1;durP1;ratioP1;P2;durP2;ratioP2
16262;SDS011;8239;48.594;8.598;2024-02-15T00:00:01;4.70;;;2.07;;
16262;SDS011;8239;48.594;8.598;2024-02-15T00:02:28;2.70;;;1.73;;
16262;SDS011;8239;48.594;8.598;2024-02-15T00:04:55;3.97;;;2.30;;
16262;SDS011;8239;48.594;8.598;2024-02-15T00:07:24;3.30;;;2.10;;
16262;SDS011;8239;48.594;8.598;2024-02-15T00:09:51;5.50;;;3.00;;
16262;SDS011;8239;48.594;8.598;2024-02-15T00:12:18;4.40;;;2.43;;
16262;SDS011;8239;48.594;8.598;2024-02-15T00:14:46;5.33;;;2.47;;
16262;SDS011;8239;48.594;8.598;2024-02-15T00:17:13;4.33;;;2.93;;
16262;SDS011;8239;48.594;8.598;2024-02-15T00:19:40;3.80;;;3.00;;
16262;SDS011;8239;48.594;8.598;2024-02-15T00:22:07;3.93;;;2.20;;
16262;SDS011;8239;48.594;8.598;2024-02-15T00:24:37;5.37;;;3.63;;
16262;SDS011;8239;48.594;8.598;2024-02-15T00:27:05;3.73;;;2.50;;
16262;SDS011;8239;48.594;8.598;2024-02-15T00:29:32;3.93;;;2.20;;
16262;SDS011;8239;48.594;8.598;2024-02-15T00:31:59;3.63;;;2.50;;
16262;SDS011;8239;48.594;8.598;2024-02-15T00:34:26;2.73;;;2.30;;
16262;SDS011;8239;48.594;8.598;2024-02-15T00:36:53;3.47;;;2.20;;
16262;SDS011;8239;48.594;8.598;2024-02-15T00:39:20;5.33;;;2.60;;
16262;SDS011;8239;48.594;8.598;2024-02-15T00:41:48;3.83;;;2.70;;
16262;SDS011;8239;48.594;8.598;2024-02-15T00:44:15;4.10;;;2.87;;
16262;SDS011;8239;48.594;8.598;2024-02-15T00:46:42;4.50;;;2.70;;
16262;SDS011;8239;48.594;8.598;2024-02-15T00:49:09;4.93;;;2.40;;
16262;SDS011;8239;48.594;8.598;2024-02-15T00:51:36;5.83;;;2.70;;
16262;SDS011;8239;48.594;8.598;2024-02-15T00:54:03;5.63;;;2.77;;
16262;SDS011;8239;48.594;8.598;2024-02-15T00:56:31;6.50;;;3.10;;
16262;SDS011;8239;48.594;8.598;2024-02-15T00:59:00;7.43;;;3.20;;
16262;SDS011;8239;48.594;8.598;2024-02-15T01:01:27;5.20;;;2.67;;
16262;SDS011;8239;48.594;8.598;2024-02-15T01:03:54;8.37;;;3.10;;
16262;SDS011;8239;48.594;8.598;2024-02-15T01:06:21;5.37;;;3.27;;
16262;SDS011;8239;48.594;8.598;2024-02-15T01:08:48;4.63;;;3.23;;
16262;SDS011;8239;48.594;8.598;2024-02-15T01:11:15;6.67;;;3.00;;
16262;SDS011;8239;48.594;8.598;2024-02-15T01:13:42;6.70;;;3.30;;
16262;SDS011;8239;48.594;8.598;2024-02-15T01:16:11;48.30;;;4.87;;
16262;SDS011;8239;48.594;8.598;2024-02-15T01:18:38;58.83;;;5.43;;
16262;SDS011;8239;48.594;8.598;2024-02-15T01:21:05;91.87;;;6.83;;
16262;SDS011;8239;48.594;8.598;2024-02-15T01:23:32;86.47;;;6.23;;
16262;SDS011;8239;48.594;8.598;2024-02-15T01:26:02;105.93;;;5.53;;
16262;SDS011;8239;48.594;8.598;2024-02-15T01:28:30;68.83;;;5.10;;
16262;SDS011;8239;48.594;8.598;2024-02-15T01:30:57;24.13;;;3.60;;
16262;SDS011;8239;48.594;8.598;2024-02-15T01:33:25;17.73;;;2.90;;
16262;SDS011;8239;48.594;8.598;2024-02-15T01:35:53;4.87;;;2.37;;
16262;SDS011;8239;48.594;8.598;2024-02-15T01:38:22;12.53;;;2.63;;
16262;SDS011;8239;48.594;8.598;2024-02-15T01:40:49;4.77;;;2.73;;
16262;SDS011;8239;48.594;8.598;2024-02-15T01:43:16;4.27;;;2.80;;
16262;SDS011;8239;48.594;8.598;2024-02-15T01:45:43;3.80;;;2.60;;
16262;SDS011;8239;48.594;8.598;2024-02-15T01:48:12;5.17;;;2.67;;
16262;SDS011;8239;48.594;8.598;2024-02-15T01:50:41;37.23;;;3.97;;
16262;SDS011;8239;48.594;8.598;2024-02-15T01:53:08;13.90;;;2.97;;
16262;SDS011;8239;48.594;8.598;2024-02-15T01:55:37;8.07;;;3.00;;
16262;SDS011;8239;48.594;8.598;2024-02-15T01:58:05;4.80;;;2.50;;
16262;SDS011;8239;48.594;8.598;2024-02-15T02:00:32;6.13;;;2.83;;
16262;SDS011;8239;48.594;8.598;2024-02-15T02:02:59;9.07;;;3.40;;
16262;SDS011;8239;48.594;8.598;2024-02-15T02:05:28;5.40;;;3.20;;
16262;SDS011;8239;48.594;8.598;2024-02-15T02:07:57;7.40;;;3.63;;
16262;SDS011;8239;48.594;8.598;2024-02-15T02:10:29;125.60;;;9.60;;
16262;SDS011;8239;48.594;8.598;2024-02-15T02:12:57;113.93;;;9.13;;
16262;SDS011;8239;48.594;8.598;2024-02-15T02:15:26;5.60;;;3.50;;
16262;SDS011;8239;48.594;8.598;2024-02-15T02:17:54;7.73;;;4.60;;
16262;SDS011;8239;48.594;8.598;2024-02-15T02:20:21;3.60;;;2.93;;
16262;SDS011;8239;48.594;8.598;2024-02-15T02:22:48;3.83;;;2.77;;
16262;SDS011;8239;48.594;8.598;2024-02-15T02:25:21;5.73;;;2.77;;
16262;SDS011;8239;48.594;8.598;2024-02-15T02:27:51;4.60;;;2.77;;
16262;SDS011;8239;48.594;8.598;2024-02-15T02:30:18;6.73;;;2.73;;
16262;SDS011;8239;48.594;8.598;2024-02-15T02:32:47;6.50;;;4.17;;
16262;SDS011;8239;48.594;8.598;2024-02-15T02:35:14;9.17;;;4.00;;
16262;SDS011;8239;48.594;8.598;2024-02-15T02:37:42;5.30;;;2.70;;
16262;SDS011;8239;48.594;8.598;2024-02-15T02:40:09;6.33;;;2.50;;
16262;SDS011;8239;48.594;8.598;2024-02-15T02:42:47;6.63;;;2.73;;
16262;SDS011;8239;48.594;8.598;2024-02-15T02:45:15;4.03;;;2.40;;
16262;SDS011;8239;48.594;8.598;2024-02-15T02:47:44;4.20;;;2.57;;
16262;SDS011;8239;48.594;8.598;2024-02-15T02:50:12;5.73;;;2.60;;
16262;SDS011;8239;48.594;8.598;2024-02-15T02:52:39;6.50;;;3.07;;
16262;SDS011;8239;48.594;8.598;2024-02-15T02:55:06;8.20;;;3.70;;
16262;SDS011;8239;48.594;8.598;2024-02-15T02:57:34;7.07;;;3.03;;
16262;SDS011;8239;48.594;8.598;2024-02-15T03:00:04;8.70;;;3.47;;
16262;SDS011;8239;48.594;8.598;2024-02-15T03:02:33;6.83;;;3.00;;
16262;SDS011;8239;48.594;8.598;2024-02-15T03:05:01;9.90;;;2.90;;
16262;SDS011;8239;48.594;8.598;2024-02-15T03:07:31;8.73;;;2.50;;
16262;SDS011;8239;48.594;8.598;2024-02-15T03:09:59;3.30;;;2.00;;
16262;SDS011;8239;48.594;8.598;2024-02-15T03:12:26;2.87;;;1.83;;
16262;SDS011;8239;48.594;8.598;2024-02-15T03:14:54;3.53;;;2.03;;
16262;SDS011;8239;48.594;8.598;2024-02-15T03:17:22;11.07;;;2.20;;
16262;SDS011;8239;48.594;8.598;2024-02-15T03:19:49;12.20;;;1.80;;
16262;SDS011;8239;48.594;8.598;2024-02-15T03:22:16;11.93;;;2.03;;
16262;SDS011;8239;48.594;8.598;2024-02-15T03:24:43;4.70;;;1.70;;
16262;SDS011;8239;48.594;8.598;2024-02-15T03:27:10;2.00;;;1.50;;
16262;SDS011;8239;48.594;8.598;2024-02-15T03:29:37;1.73;;;1.40;;
16262;SDS011;8239;48.594;8.598;2024-02-15T03:32:04;3.67;;;2.00;;
16262;SDS011;8239;48.594;8.598;2024-02-15T03:34:33;3.40;;;2.00;;
16262;SDS011;8239;48.594;8.598;2024-02-15T03:37:00;8.13;;;2.70;;
16262;SDS011;8239;48.594;8.598;2024-02-15T03:39:29;5.40;;;2.30;;
16262;SDS011;8239;48.594;8.598;2024-02-15T03:41:58;4.30;;;2.37;;
16262;SDS011;8239;48.594;8.598;2024-02-15T03:44:25;3.00;;;1.70;;
16262;SDS011;8239;48.594;8.598;2024-02-15T03:46:52;2.80;;;1.37;;
16262;SDS011;8239;48.594;8.598;2024-02-15T03:49:20;4.07;;;1.97;;
16262;SDS011;8239;48.594;8.598;2024-02-15T03:51:49;3.97;;;2.00;;
16262;SDS011;8239;48.594;8.598;2024-02-15T03:54:16;3.37;;;1.80;;
16262;SDS011;8239;48.594;8.598;2024-02-15T03:56:46;2.27;;;1.80;;
16262;SDS011;8239;48.594;8.598;2024-02-15T03:59:16;3.37;;;1.77;;
16262;SDS011;8239;48.594;8.598;2024-02-15T04:01:46;3.07;;;1.80;;
16262;SDS011;8239;48.594;8.598;2024-02-15T04:04:13;2.50;;;1.70;;
16262;SDS011;8239;48.594;8.598;2024-02-15T04:06:40;3.13;;;2.00;;
16262;SDS011;8239;48.594;8.598;2024-02-15T04:09:09;3.53;;;2.30;;
16262;SDS011;8239;48.594;8.598;2024-02-15T04:11:36;6.70;;;3.23;;
16262;SDS011;8239;48.594;8.598;2024-02-15T04:14:03;6.63;;;3.60;;
16262;SDS011;8239;48.594;8.598;2024-02-15T04:16:30;4.43;;;2.63;;
16262;SDS011;8239;48.594;8.598;2024-02-15T04:18:58;4.03;;;2.20;;
16262;SDS011;8239;48.594;8.598;2024-02-15T04:21:26;4.03;;;1.90;;
16262;SDS011;8239;48.594;8.598;2024-02-15T04:23:53;2.57;;;1.90;;
16262;SDS011;8239;48.594;8.598;2024-02-15T04:26:21;3.03;;;1.87;;
16262;SDS011;8239;48.594;8.598;2024-02-15T04:28:51;2.80;;;2.20;;
16262;SDS011;8239;48.594;8.598;2024-02-15T04:31:19;3.70;;;2.30;;
16262;SDS011;8239;48.594;8.598;2024-02-15T04:33:51;5.73;;;2.23;;
16262;SDS011;8239;48.594;8.598;2024-02-15T04:36:19;4.20;;;2.30;;
16262;SDS011;8239;48.594;8.598;2024-02-15T04:38:48;3.20;;;2.23;;
16262;SDS011;8239;48.594;8.598;2024-02-15T04:41:16;3.73;;;2.40;;
16262;SDS011;8239;48.594;8.598;2024-02-15T04:43:47;5.03;;;2.40;;
16262;SDS011;8239;48.594;8.598;2024-02-15T04:46:15;2.20;;;2.00;;
16262;SDS011;8239;48.594;8.598;2024-02-15T04:48:42;4.10;;;2.30;;
16262;SDS011;8239;48.594;8.598;2024-02-15T04:51:09;6.00;;;2.30;;
16262;SDS011;8239;48.594;8.598;2024-02-15T04:53:36;5.40;;;2.80;;
16262;SDS011;8239;48.594;8.598;2024-02-15T04:56:04;4.23;;;2.20;;
16262;SDS011;8239;48.594;8.598;2024-02-15T04:58:36;2.80;;;2.00;;
16262;SDS011;8239;48.594;8.598;2024-02-15T05:01:11;2.60;;;2.37;;
16262;SDS011;8239;48.594;8.598;2024-02-15T05:03:39;2.33;;;1.50;;
16262;SDS011;8239;48.594;8.598;2024-02-15T05:06:06;2.37;;;1.30;;
16262;SDS011;8239;48.594;8.598;2024-02-15T05:08:35;2.40;;;1.67;;
16262;SDS011;8239;48.594;8.598;2024-02-15T05:11:03;3.30;;;1.70;;
16262;SDS011;8239;48.594;8.598;2024-02-15T05:13:31;3.37;;;1.80;;
16262;SDS011;8239;48.594;8.598;2024-02-15T05:15:58;3.93;;;1.87;;
16262;SDS011;8239;48.594;8.598;2024-02-15T05:18:26;3.03;;;1.80;;
16262;SDS011;8239;48.594;8.598;2024-02-15T05:20:55;4.70;;;2.10;;
16262;SDS011;8239;48.594;8.598;2024-02-15T05:23:22;3.87;;;2.17;;
16262;SDS011;8239;48.594;8.598;2024-02-15T05:25:49;5.40;;;2.47;;
16262;SDS011;8239;48.594;8.598;2024-02-15T05:28:16;4.13;;;2.17;;
16262;SDS011;8239;48.594;8.598;2024-02-15T05:30:44;4.97;;;2.40;;
16262;SDS011;8239;48.594;8.598;2024-02-15T05:33:10;3.20;;;1.80;;
16262;SDS011;8239;48.594;8.598;2024-02-15T05:35:39;3.40;;;2.10;;
16262;SDS011;8239;48.594;8.598;2024-02-15T05:38:07;4.03;;;2.20;;
16262;SDS011;8239;48.594;8.598;2024-02-15T05:40:36;3.97;;;1.70;;
16262;SDS011;8239;48.594;8.598;2024-02-15T05:43:03;3.63;;;1.90;;
16262;SDS011;8239;48.594;8.598;2024-02-15T05:45:31;4.23;;;1.97;;
16262;SDS011;8239;48.594;8.598;2024-02-15T05:48:03;3.67;;;2.00;;
16262;SDS011;8239;48.594;8.598;2024-02-15T05:50:33;3.57;;;2.10;;
16262;SDS011;8239;48.594;8.598;2024-02-15T05:53:02;5.60;;;2.00;;
16262;SDS011;8239;48.594;8.598;2024-02-15T05:55:29;3.53;;;1.93;;
16262;SDS011;8239;48.594;8.598;2024-02-15T05:57:59;3.37;;;2.10;;
16262;SDS011;8239;48.594;8.598;2024-02-15T06:00:26;4.47;;;2.37;;
16262;SDS011;8239;48.594;8.598;2024-02-15T06:02:55;4.83;;;2.10;;
16262;SDS011;8239;48.594;8.598;2024-02-15T06:05:22;3.43;;;2.00;;
16262;SDS011;8239;48.594;8.598;2024-02-15T06:07:49;4.77;;;4.03;;
16262;SDS011;8239;48.594;8.598;2024-02-15T06:10:18;4.30;;;3.30;;
16262;SDS011;8239;48.594;8.598;2024-02-15T06:12:45;4.27;;;2.60;;
16262;SDS011;8239;48.594;8.598;2024-02-15T06:15:12;3.17;;;2.43;;
16262;SDS011;8239;48.594;8.598;2024-02-15T06:17:41;2.60;;;2.07;;
16262;SDS011;8239;48.594;8.598;2024-02-15T06:20:11;1.90;;;1.80;;
16262;SDS011;8239;48.594;8.598;2024-02-15T06:22:39;3.80;;;2.00;;
16262;SDS011;8239;48.594;8.598;2024-02-15T06:25:07;2.07;;;1.53;;
16262;SDS011;8239;48.594;8.598;2024-02-15T06:27:37;2.43;;;1.97;;
16262;SDS011;8239;48.594;8.598;2024-02-15T06:30:06;3.50;;;2.30;;
16262;SDS011;8239;48.594;8.598;2024-02-15T06:32:51;4.67;;;2.60;;
16262;SDS011;8239;48.594;8.598;2024-02-15T06:35:36;4.63;;;2.17;;
16262;SDS011;8239;48.594;8.598;2024-02-15T06:38:21;3.93;;;3.00;;
16262;SDS011;8239;48.594;8.598;2024-02-15T06:41:06;9.00;;;2.97;;
16262;SDS011;8239;48.594;8.598;2024-02-15T06:43:35;36.23;;;3.80;;
16262;SDS011;8239;48.594;8.598;2024-02-15T06:46:02;18.50;;;2.97;;
16262;SDS011;8239;48.594;8.598;2024-02-15T06:48:32;9.90;;;2.23;;
16262;SDS011;8239;48.594;8.598;2024-02-15T06:50:59;3.47;;;2.30;;
16262;SDS011;8239;48.594;8.598;2024-02-15T06:53:27;3.10;;;2.50;;
16262;SDS011;8239;48.594;8.598;2024-02-15T06:55:55;4.20;;;2.63;;
16262;SDS011;8239;48.594;8.598;2024-02-15T06:58:22;4.10;;;2.70;;
16262;SDS011;8239;48.594;8.598;2024-02-15T07:00:51;3.37;;;2.57;;
16262;SDS011;8239;48.594;8.598;2024-02-15T07:03:18;2.47;;;2.27;;
16262;SDS011;8239;48.594;8.598;2024-02-15T07:05:47;2.60;;;2.40;;
16262;SDS011;8239;48.594;8.598;2024-02-15T07:08:15;2.63;;;2.27;;
16262;SDS011;8239;48.594;8.598;2024-02-15T07:10:41;3.13;;;2.03;;
16262;SDS011;8239;48.594;8.598;2024-02-15T07:13:09;5.33;;;2.17;;
16262;SDS011;8239;48.594;8.598;2024-02-15T07:15:36;2.70;;;1.60;;
16262;SDS011;8239;48.594;8.598;2024-02-15T07:18:05;1.10;;;1.00;;
16262;SDS011;8239;48.594;8.598;2024-02-15T07:20:32;1.00;;;0.80;;
16262;SDS011;8239;48.594;8.598;2024-02-15T07:22:59;1.20;;;1.10;;
16262;SDS011;8239;48.594;8.598;2024-02-15T07:25:26;1.10;;;1.10;;
16262;SDS011;8239;48.594;8.598;2024-02-15T07:27:56;1.30;;;1.30;;
16262;SDS011;8239;48.594;8.598;2024-02-15T07:30:23;1.70;;;1.60;;
16262;SDS011;8239;48.594;8.598;2024-02-15T07:32:50;1.13;;;1.10;;
16262;SDS011;8239;48.594;8.598;2024-02-15T07:35:19;1.30;;;1.20;;
16262;SDS011;8239;48.594;8.598;2024-02-15T07:37:51;1.20;;;1.20;;
16262;SDS011;8239;48.594;8.598;2024-02-15T07:40:20;1.50;;;1.40;;
16262;SDS011;8239;48.594;8.598;2024-02-15T07:42:48;1.20;;;1.10;;
16262;SDS011;8239;48.594;8.598;2024-02-15T07:45:14;0.90;;;0.90;;
16262;SDS011;8239;48.594;8.598;2024-02-15T07:47:43;1.67;;;1.00;;
16262;SDS011;8239;48.594;8.598;2024-02-15T07:50:10;1.90;;;1.30;;
16262;SDS011;8239;48.594;8.598;2024-02-15T07:52:43;1.67;;;1.50;;
16262;SDS011;8239;48.594;8.598;2024-02-15T07:55:10;1.23;;;1.20;;
16262;SDS011;8239;48.594;8.598;2024-02-15T07:57:37;1.80;;;1.70;;
16262;SDS011;8239;48.594;8.598;2024-02-15T08:00:04;1.50;;;1.40;;
16262;SDS011;8239;48.594;8.598;2024-02-15T08:02:35;1.70;;;1.60;;
16262;SDS011;8239;48.594;8.598;2024-02-15T08:05:05;2.30;;;2.00;;
16262;SDS011;8239;48.594;8.598;2024-02-15T08:07:35;42.47;;;9.93;;
16262;SDS011;8239;48.594;8.598;2024-02-15T08:10:06;11.33;;;7.83;;
16262;SDS011;8239;48.594;8.598;2024-02-15T08:12:38;9.90;;;7.23;;
16262;SDS011;8239;48.594;8.598;2024-02-15T08:15:06;5.97;;;5.37;;
16262;SDS011;8239;48.594;8.598;2024-02-15T08:17:37;6.10;;;5.50;;
16262;SDS011;8239;48.594;8.598;2024-02-15T08:20:06;4.20;;;3.90;;
16262;SDS011;8239;48.594;8.598;2024-02-15T08:22:34;2.80;;;2.60;;
16262;SDS011;8239;48.594;8.598;2024-02-15T08:25:03;2.57;;;2.37;;
16262;SDS011;8239;48.594;8.598;2024-02-15T08:27:36;2.40;;;2.20;;
16262;SDS011;8239;48.594;8.598;2024-02-15T08:30:06;2.53;;;2.33;;
16262;SDS011;8239;48.594;8.598;2024-02-15T08:32:35;2.28;;;1.50;;
16262;SDS011;8239;48.594;8.598;2024-02-15T08:35:03;1.63;;;1.52;;
16262;SDS011;8239;48.594;8.598;2024-02-15T08:37:30;1.58;;;1.48;;
16262;SDS011;8239;48.594;8.598;2024-02-15T08:39:59;1.70;;;1.60;;
16262;SDS011;8239;48.594;8.598;2024-02-15T08:42:27;1.73;;;1.60;;
16262;SDS011;8239;48.594;8.598;2024-02-15T08:44:55;1.80;;;1.70;;
16262;SDS011;8239;48.594;8.598;2024-02-15T08:47:22;1.60;;;1.50;;
16262;SDS011;8239;48.594;8.598;2024-02-15T08:49:48;1.42;;;1.42;;
16262;SDS011;8239;48.594;8.598;2024-02-15T08:52:16;1.33;;;1.20;;
16262;SDS011;8239;48.594;8.598;2024-02-15T08:54:43;1.33;;;1.23;;
16262;SDS011;8239;48.594;8.598;2024-02-15T08:57:10;1.33;;;1.08;;
16262;SDS011;8239;48.594;8.598;2024-02-15T08:59:40;1.30;;;1.20;;
16262;SDS011;8239;48.594;8.598;2024-02-15T09:02:07;1.88;;;1.77;;
16262;SDS011;8239;48.594;8.598;2024-02-15T09:04:35;2.20;;;1.60;;
16262;SDS011;8239;48.594;8.598;2024-02-15T09:07:02;1.30;;;1.30;;
16262;SDS011;8239;48.594;8.598;2024-02-15T09:09:29;1.60;;;1.50;;
16262;SDS011;8239;48.594;8.598;2024-02-15T09:12:00;2.08;;;1.58;;
16262;SDS011;8239;48.594;8.598;2024-02-15T09:14:30;1.67;;;1.40;;
16262;SDS011;8239;48.594;8.598;2024-02-15T09:17:00;1.95;;;1.40;;
16262;SDS011;8239;48.594;8.598;2024-02-15T09:19:32;1.55;;;1.45;;
16262;SDS011;8239;48.594;8.598;2024-02-15T09:21:59;1.77;;;1.40;;
16262;SDS011;8239;48.594;8.598;2024-02-15T09:24:26;1.60;;;1.50;;
16262;SDS011;8239;48.594;8.598;2024-02-15T09:26:54;3.30;;;1.30;;
16262;SDS011;8239;48.594;8.598;2024-02-15T09:29:21;2.38;;;1.60;;
16262;SDS011;8239;48.594;8.598;2024-02-15T09:31:49;2.63;;;2.42;;
16262;SDS011;8239;48.594;8.598;2024-02-15T09:34:19;2.00;;;1.90;;
16262;SDS011;8239;48.594;8.598;2024-02-15T09:36:46;1.90;;;1.80;;
16262;SDS011;8239;48.594;8.598;2024-02-15T09:39:13;1.75;;;1.65;;
16262;SDS011;8239;48.594;8.598;2024-02-15T09:41:40;2.03;;;1.70;;
16262;SDS011;8239;48.594;8.598;2024-02-15T09:44:08;1.58;;;1.45;;
16262;SDS011;8239;48.594;8.598;2024-02-15T09:46:43;2.05;;;1.90;;
16262;SDS011;8239;48.594;8.598;2024-02-15T09:49:11;2.42;;;1.58;;
16262;SDS011;8239;48.594;8.598;2024-02-15T09:51:40;1.98;;;1.88;;
16262;SDS011;8239;48.594;8.598;2024-02-15T09:54:08;2.83;;;1.50;;
16262;SDS011;8239;48.594;8.598;2024-02-15T09:56:38;3.08;;;1.50;;
16262;SDS011;8239;48.594;8.598;2024-02-15T09:59:07;2.38;;;1.58;;
16262;SDS011;8239;48.594;8.598;2024-02-15T10:01:34;2.25;;;1.77;;
16262;SDS011;8239;48.594;8.598;2024-02-15T10:04:03;2.03;;;1.67;;
16262;SDS011;8239;48.594;8.598;2024-02-15T10:06:32;2.53;;;1.60;;
16262;SDS011;8239;48.594;8.598;2024-02-15T10:12:05;2.67;;;2.10;;
16262;SDS011;8239;48.594;8.598;2024-02-15T10:14:32;3.83;;;2.50;;
16262;SDS011;8239;48.594;8.598;2024-02-15T10:17:05;2.80;;;2.60;;
16262;SDS011;8239;48.594;8.598;2024-02-15T10:19:34;2.58;;;2.33;;
16262;SDS011;8239;48.594;8.598;2024-02-15T10:22:05;2.90;;;2.30;;
16262;SDS011;8239;48.594;8.598;2024-02-15T10:24:33;3.60;;;2.42;;
16262;SDS011;8239;48.594;8.598;2024-02-15T10:27:02;2.75;;;2.50;;
16262;SDS011;8239;48.594;8.598;2024-02-15T10:29:32;3.05;;;2.38;;
16262;SDS011;8239;48.594;8.598;2024-02-15T10:32:00;3.08;;;2.88;;
16262;SDS011;8239;48.594;8.598;2024-02-15T10:34:27;4.03;;;3.22;;
16262;SDS011;8239;48.594;8.598;2024-02-15T10:36:55;3.40;;;2.50;;
16262;SDS011;8239;48.594;8.598;2024-02-15T10:39:37;3.03;;;2.72;;
16262;SDS011;8239;48.594;8.598;2024-02-15T10:42:07;3.17;;;2.40;;
16262;SDS011;8239;48.594;8.598;2024-02-15T10:44:36;3.40;;;2.80;;
16262;SDS011;8239;48.594;8.598;2024-02-15T10:47:05;3.75;;;2.53;;
16262;SDS011;8239;48.594;8.598;2024-02-15T10:49:33;3.05;;;2.45;;
16262;SDS011;8239;48.594;8.598;2024-02-15T10:52:01;2.78;;;2.50;;
16262;SDS011;8239;48.594;8.598;2024-02-15T10:54:46;2.72;;;2.20;;
16262;SDS011;8239;48.594;8.598;2024-02-15T10:57:18;2.65;;;2.25;;
16262;SDS011;8239;48.594;8.598;2024-02-15T10:59:52;2.92;;;2.40;;
16262;SDS011;8239;48.594;8.598;2024-02-15T11:02:26;2.30;;;2.10;;
16262;SDS011;8239;48.594;8.598;2024-02-15T11:04:55;2.40;;;2.20;;
16262;SDS011;8239;48.594;8.598;2024-02-15T11:07:29;2.75;;;2.00;;
16262;SDS011;8239;48.594;8.598;2024-02-15T11:09:57;2.38;;;2.13;;
16262;SDS011;8239;48.594;8.598;2024-02-15T11:12:27;2.75;;;2.03;;
16262;SDS011;8239;48.594;8.598;2024-02-15T11:14:56;2.20;;;2.10;;
16262;SDS011;8239;48.594;8.598;2024-02-15T11:23:27;3.72;;;2.10;;
16262;SDS011;8239;48.594;8.598;2024-02-15T11:25:55;3.45;;;2.33;;
16262;SDS011;8239;48.594;8.598;2024-02-15T11:28:39;3.65;;;2.40;;
16262;SDS011;8239;48.594;8.598;2024-02-15T11:31:07;3.25;;;2.45;;
16262;SDS011;8239;48.594;8.598;2024-02-15T11:33:35;2.15;;;1.90;;
16262;SDS011;8239;48.594;8.598;2024-02-15T11:36:04;2.60;;;2.20;;
16262;SDS011;8239;48.594;8.598;2024-02-15T11:38:32;2.25;;;2.05;;
16262;SDS011;8239;48.594;8.598;2024-02-15T11:41:00;3.17;;;2.20;;
16262;SDS011;8239;48.594;8.598;2024-02-15T11:43:48;2.95;;;2.20;;
16262;SDS011;8239;48.594;8.598;2024-02-15T11:46:21;2.40;;;2.20;;
16262;SDS011;8239;48.594;8.598;2024-02-15T11:48:50;2.70;;;1.95;;
16262;SDS011;8239;48.594;8.598;2024-02-15T11:51:28;3.00;;;2.25;;
16262;SDS011;8239;48.594;8.598;2024-02-15T11:54:03;3.55;;;2.30;;
16262;SDS011;8239;48.594;8.598;2024-02-15T11:56:31;2.30;;;2.10;;
16262;SDS011;8239;48.594;8.598;2024-02-15T11:59:03;2.90;;;2.00;;
16262;SDS011;8239;48.594;8.598;2024-02-15T12:01:32;3.58;;;2.20;;
16262;SDS011;8239;48.594;8.598;2024-02-15T12:04:18;2.67;;;1.83;;
16262;SDS011;8239;48.594;8.598;2024-02-15T12:07:02;1.95;;;1.80;;
16262;SDS011;8239;48.594;8.598;2024-02-15T12:09:47;2.00;;;1.80;;
16262;SDS011;8239;48.594;8.598;2024-02-15T12:12:31;2.63;;;1.98;;
16262;SDS011;8239;48.594;8.598;2024-02-15T12:15:17;2.60;;;2.10;;
16262;SDS011;8239;48.594;8.598;2024-02-15T12:18:14;3.88;;;2.05;;
16262;SDS011;8239;48.594;8.598;2024-02-15T12:20:58;2.65;;;2.00;;
16262;SDS011;8239;48.594;8.598;2024-02-15T12:23:27;4.40;;;2.20;;
16262;SDS011;8239;48.594;8.598;2024-02-15T12:25:55;2.72;;;2.20;;
16262;SDS011;8239;48.594;8.598;2024-02-15T12:28:23;3.47;;;2.20;;
16262;SDS011;8239;48.594;8.598;2024-02-15T12:30:55;2.80;;;2.20;;
16262;SDS011;8239;48.594;8.598;2024-02-15T12:33:22;2.60;;;2.40;;
16262;SDS011;8239;48.594;8.598;2024-02-15T12:35:50;3.30;;;2.25;;
16262;SDS011;8239;48.594;8.598;2024-02-15T12:38:17;2.47;;;2.28;;
16262;SDS011;8239;48.594;8.598;2024-02-15T12:40:44;2.38;;;2.10;;
16262;SDS011;8239;48.594;8.598;2024-02-15T12:43:11;3.00;;;2.30;;
16262;SDS011;8239;48.594;8.598;2024-02-15T12:45:39;6.05;;;2.90;;
16262;SDS011;8239;48.594;8.598;2024-02-15T12:48:08;6.30;;;4.60;;
16262;SDS011;8239;48.594;8.598;2024-02-15T12:50:36;4.90;;;2.72;;
16262;SDS011;8239;48.594;8.598;2024-02-15T12:53:03;3.65;;;2.15;;
16262;SDS011;8239;48.594;8.598;2024-02-15T12:55:31;2.63;;;2.20;;
16262;SDS011;8239;48.594;8.598;2024-02-15T12:58:00;2.05;;;1.80;;
16262;SDS011;8239;48.594;8.598;2024-02-15T13:00:29;2.13;;;1.60;;
16262;SDS011;8239;48.594;8.598;2024-02-15T13:02:58;2.20;;;2.00;;
16262;SDS011;8239;48.594;8.598;2024-02-15T13:05:30;4.47;;;1.75;;
16262;SDS011;8239;48.594;8.598;2024-02-15T13:07:57;3.10;;;1.80;;
16262;SDS011;8239;48.594;8.598;2024-02-15T13:10:27;2.78;;;2.10;;
16262;SDS011;8239;48.594;8.598;2024-02-15T13:12:55;2.05;;;1.77;;
16262;SDS011;8239;48.594;8.598;2024-02-15T13:15:22;3.63;;;1.83;;
16262;SDS011;8239;48.594;8.598;2024-02-15T13:17:52;3.45;;;1.90;;
16262;SDS011;8239;48.594;8.598;2024-02-15T13:20:20;3.60;;;2.10;;
16262;SDS011;8239;48.594;8.598;2024-02-15T13:22:58;2.67;;;1.80;;
16262;SDS011;8239;48.594;8.598;2024-02-15T13:25:27;3.20;;;2.03;;
16262;SDS011;8239;48.594;8.598;2024-02-15T13:27:55;2.13;;;1.80;;
16262;SDS011;8239;48.594;8.598;2024-02-15T13:30:23;3.13;;;1.98;;
16262;SDS011;8239;48.594;8.598;2024-02-15T13:32:52;2.70;;;1.88;;
16262;SDS011;8239;48.594;8.598;2024-02-15T13:35:20;2.88;;;1.55;;
16262;SDS011;8239;48.594;8.598;2024-02-15T13:37:49;3.08;;;1.60;;
16262;SDS011;8239;48.594;8.598;2024-02-15T13:40:20;1.95;;;1.73;;
16262;SDS011;8239;48.594;8.598;2024-02-15T13:42:49;2.35;;;1.83;;
16262;SDS011;8239;48.594;8.598;2024-02-15T13:45:19;2.35;;;1.65;;
16262;SDS011;8239;48.594;8.598;2024-02-15T13:47:48;2.40;;;1.48;;
16262;SDS011;8239;48.594;8.598;2024-02-15T13:50:15;1.90;;;1.65;;
16262;SDS011;8239;48.594;8.598;2024-02-15T13:52:43;2.75;;;2.22;;
16262;SDS011;8239;48.594;8.598;2024-02-15T13:55:11;3.08;;;1.90;;
16262;SDS011;8239;48.594;8.598;2024-02-15T13:57:40;1.58;;;1.40;;
16262;SDS011;8239;48.594;8.598;2024-02-15T14:00:09;3.92;;;2.58;;
16262;SDS011;8239;48.594;8.598;2024-02-15T14:02:46;3.83;;;2.60;;
16262;SDS011;8239;48.594;8.598;2024-02-15T14:05:13;4.13;;;2.42;;
16262;SDS011;8239;48.594;8.598;2024-02-15T14:07:45;10.18;;;6.75;;
16262;SDS011;8239;48.594;8.598;2024-02-15T14:10:15;1.80;;;1.70;;
16262;SDS011;8239;48.594;8.598;2024-02-15T14:12:45;2.28;;;1.52;;
16262;SDS011;8239;48.594;8.598;2024-02-15T14:15:13;1.80;;;1.70;;
16262;SDS011;8239;48.594;8.598;2024-02-15T14:17:42;3.35;;;1.40;;
16262;SDS011;8239;48.594;8.598;2024-02-15T14:20:10;2.53;;;1.70;;
16262;SDS011;8239;48.594;8.598;2024-02-15T14:22:39;3.08;;;1.70;;
16262;SDS011;8239;48.594;8.598;2024-02-15T14:25:07;3.22;;;1.65;;
16262;SDS011;8239;48.594;8.598;2024-02-15T14:27:34;1.70;;;1.60;;
16262;SDS011;8239;48.594;8.598;2024-02-15T14:30:03;1.40;;;1.30;;
16262;SDS011;8239;48.594;8.598;2024-02-15T14:32:49;2.55;;;1.65;;
16262;SDS011;8239;48.594;8.598;2024-02-15T14:35:33;2.30;;;1.70;;
16262;SDS011;8239;48.594;8.598;2024-02-15T14:38:01;2.13;;;1.60;;
16262;SDS011;8239;48.594;8.598;2024-02-15T14:40:31;3.42;;;2.00;;
16262;SDS011;8239;48.594;8.598;2024-02-15T14:42:59;2.33;;;1.60;;
16262;SDS011;8239;48.594;8.598;2024-02-15T14:45:28;3.00;;;1.85;;
16262;SDS011;8239;48.594;8.598;2024-02-15T14:47:56;1.67;;;1.50;;
16262;SDS011;8239;48.594;8.598;2024-02-15T14:50:23;2.78;;;1.90;;
16262;SDS011;8239;48.594;8.598;2024-02-15T14:52:50;4.13;;;1.60;;
16262;SDS011;8239;48.594;8.598;2024-02-15T14:55:18;2.08;;;1.67;;
16262;SDS011;8239;48.594;8.598;2024-02-15T14:57:45;1.92;;;1.83;;
16262;SDS011;8239;48.594;8.598;2024-02-15T15:00:12;1.85;;;1.70;;
16262;SDS011;8239;48.594;8.598;2024-02-15T15:02:43;1.77;;;1.67;;
16262;SDS011;8239;48.594;8.598;2024-02-15T15:05:11;1.95;;;1.70;;
16262;SDS011;8239;48.594;8.598;2024-02-15T15:07:56;2.05;;;1.70;;
16262;SDS011;8239;48.594;8.598;2024-02-15T15:10:40;2.58;;;1.98;;
16262;SDS011;8239;48.594;8.598;2024-02-15T15:13:25;3.92;;;2.10;;
16262;SDS011;8239;48.594;8.598;2024-02-15T15:15:52;2.55;;;2.00;;
16262;SDS011;8239;48.594;8.598;2024-02-15T15:18:20;4.53;;;1.92;;
16262;SDS011;8239;48.594;8.598;2024-02-15T15:20:48;2.50;;;2.00;;